createdAt,value
2019-06-10T00:03:48.284Z,16.60
2019-06-10T00:08:53.910Z,16.50
2019-06-10T00:14:02.448Z,16.50
2019-06-10T00:19:09.282Z,16.50
2019-06-10T00:24:14.080Z,16.50
2019-06-10T00:29:21.970Z,16.50
2019-06-10T00:34:27.039Z,16.40
2019-06-10T00:39:32.665Z,16.40
2019-06-10T00:44:38.302Z,16.40
2019-06-10T00:49:43.860Z,16.40
2019-06-10T00:54:51.730Z,16.40
2019-06-10T00:59:56.754Z,16.30
2019-06-10T01:05:03.087Z,16.30
2019-06-10T01:10:11.828Z,16.10
2019-06-10T01:15:17.262Z,16.00
2019-06-10T01:20:22.868Z,15.80
2019-06-10T01:25:30.969Z,15.90
2019-06-10T01:30:35.714Z,15.70
2019-06-10T01:35:41.746Z,15.70
2019-06-10T01:40:47.533Z,15.60
2019-06-10T01:45:53.202Z,15.70
2019-06-10T01:50:58.781Z,15.70
2019-06-10T01:56:04.384Z,15.70
2019-06-10T02:01:23.174Z,15.80
2019-06-10T02:06:26.577Z,15.80
2019-06-10T02:11:32.271Z,15.70
2019-06-10T02:16:37.927Z,15.60
2019-06-10T02:21:43.723Z,15.50
2019-06-10T02:26:51.485Z,15.40
2019-06-10T02:31:56.518Z,15.40
2019-06-10T02:37:04.786Z,15.40
2019-06-10T02:42:30.232Z,15.50
2019-06-10T02:47:37.003Z,15.40
2019-06-10T02:52:38.959Z,15.40
2019-06-10T02:57:45.330Z,15.40
2019-06-10T03:02:53.064Z,15.30
2019-06-10T03:07:58.427Z,15.20
2019-06-10T03:13:04.215Z,15.20
2019-06-10T03:18:09.860Z,15.30
2019-06-10T03:23:15.996Z,15.30
2019-06-10T03:28:23.648Z,15.20
2019-06-10T03:33:36.738Z,15.10
2019-06-10T03:38:37.101Z,15.10
2019-06-10T03:43:43.121Z,15.10
2019-06-10T03:48:48.762Z,15.00
2019-06-10T03:53:54.339Z,15.00
2019-06-10T03:58:59.908Z,15.00
2019-06-10T04:04:05.590Z,15.00
2019-06-10T04:09:12.069Z,14.90
2019-06-10T04:14:17.850Z,14.90
2019-06-10T04:19:25.198Z,14.90
2019-06-10T04:24:32.716Z,14.90
2019-06-10T04:29:38.076Z,14.90
2019-06-10T04:34:43.675Z,14.90
2019-06-10T04:39:49.282Z,14.90
2019-06-10T04:44:54.856Z,14.90
2019-06-10T04:50:02.935Z,14.80
2019-06-10T04:55:08.119Z,14.70
2019-06-10T05:00:14.756Z,14.70
2019-06-10T05:05:23.619Z,14.70
2019-06-10T05:10:28.368Z,14.70
2019-06-10T05:15:35.294Z,14.60
2019-06-10T05:20:54.151Z,14.50
2019-06-10T05:25:48.409Z,14.50
2019-06-10T05:30:54.034Z,14.40
2019-06-10T05:35:59.688Z,14.40
2019-06-10T05:41:05.376Z,14.50
2019-06-10T05:46:13.145Z,14.50
2019-06-10T05:51:18.366Z,14.30
2019-06-10T05:56:25.331Z,14.30
2019-06-10T06:01:36.293Z,14.30
2019-06-10T06:06:41.645Z,14.30
2019-06-10T06:11:45.967Z,14.40
2019-06-10T06:16:53.372Z,14.50
2019-06-10T06:22:02.263Z,14.50
2019-06-10T06:27:08.039Z,14.50
2019-06-10T06:32:13.670Z,14.50
2019-06-10T06:37:19.305Z,14.80
2019-06-10T06:42:24.945Z,15.10
2019-06-10T06:47:34.007Z,15.40
2019-06-10T06:53:12.537Z,15.70
2019-06-10T06:57:45.458Z,15.90
2019-06-10T07:02:52.928Z,16.00
2019-06-10T07:07:59.492Z,16.10
2019-06-10T07:13:06.805Z,16.20
2019-06-10T07:18:13.223Z,16.20
2019-06-10T07:23:18.939Z,16.20
2019-06-10T07:28:24.776Z,16.20
2019-06-10T07:33:30.387Z,16.20
2019-06-10T07:38:39.167Z,16.30
2019-06-10T07:43:49.422Z,15.80
2019-06-10T07:48:55.657Z,15.40
2019-06-10T07:53:59.188Z,15.60
2019-06-10T07:59:04.821Z,16.00
2019-06-10T08:04:12.066Z,16.20
2019-06-10T08:09:17.986Z,16.20
2019-06-10T08:14:23.600Z,16.10
2019-06-10T08:19:34.896Z,16.00
2019-06-10T08:24:37.320Z,16.00
2019-06-10T08:29:46.193Z,16.10
2019-06-10T08:34:52.855Z,16.10
2019-06-10T08:39:57.653Z,16.10
2019-06-10T08:45:03.626Z,16.10
2019-06-10T08:50:09.225Z,15.50
2019-06-10T08:55:15.346Z,15.40
2019-06-10T09:00:25.465Z,15.70
2019-06-10T09:05:29.503Z,15.90
2019-06-10T09:10:35.119Z,16.00
2019-06-10T09:15:43.775Z,16.00
2019-06-10T09:20:52.418Z,16.10
2019-06-10T09:25:57.843Z,16.10
2019-06-10T09:31:05.045Z,16.00
2019-06-10T09:36:12.520Z,16.10
2019-06-10T09:41:18.363Z,16.20
2019-06-10T09:46:26.568Z,16.20
2019-06-10T09:51:32.543Z,16.30
2019-06-10T09:56:38.689Z,16.30
2019-06-10T10:01:48.451Z,15.70
2019-06-10T10:06:57.051Z,15.20
2019-06-10T10:11:59.266Z,14.80
2019-06-10T10:17:05.038Z,14.60
2019-06-10T10:22:13.824Z,14.60
2019-06-10T10:27:19.475Z,14.60
2019-06-10T10:32:25.195Z,14.50
2019-06-10T10:37:32.283Z,14.50
2019-06-10T10:42:45.024Z,14.50
2019-06-10T10:47:45.483Z,14.40
2019-06-10T10:52:52.367Z,14.30
2019-06-10T10:57:58.360Z,14.30
2019-06-10T11:03:04.260Z,14.30
2019-06-10T11:08:13.161Z,14.20
2019-06-10T11:13:18.452Z,14.20
2019-06-10T11:18:24.277Z,14.60
2019-06-10T11:23:33.391Z,15.10
2019-06-10T11:28:37.433Z,15.50
2019-06-10T11:33:43.771Z,15.60
2019-06-10T11:38:51.142Z,15.70
2019-06-10T11:43:59.249Z,15.90
2019-06-10T11:49:04.153Z,15.90
2019-06-10T11:54:09.721Z,15.90
2019-06-10T11:59:15.456Z,15.80
2019-06-10T12:04:23.772Z,15.70
2019-06-10T12:09:28.478Z,15.60
2019-06-10T12:14:34.083Z,15.60
2019-06-10T12:19:39.707Z,15.60
2019-06-10T12:24:45.306Z,15.60
2019-06-10T12:29:54.225Z,15.50
2019-06-10T12:34:59.670Z,15.30
2019-06-10T12:40:06.285Z,14.50
2019-06-10T12:45:14.110Z,14.00
2019-06-10T12:50:20.110Z,13.80
2019-06-10T12:55:38.492Z,13.70
2019-06-10T13:00:43.777Z,13.60
2019-06-10T13:05:49.714Z,13.50
2019-06-10T13:10:56.485Z,13.50
2019-06-10T13:16:06.575Z,13.50
2019-06-10T13:21:22.782Z,13.50
2019-06-10T13:26:31.588Z,13.40
2019-06-10T13:31:35.957Z,13.20
2019-06-10T13:36:42.194Z,13.00
2019-06-10T13:41:48.204Z,13.10
2019-06-10T13:46:53.848Z,13.20
2019-06-10T13:52:03.029Z,13.20
2019-06-10T13:57:08.990Z,13.80
2019-06-10T14:02:14.354Z,14.20
2019-06-10T14:07:19.945Z,14.60
2019-06-10T14:12:26.284Z,14.70
2019-06-10T14:17:32.912Z,14.10
2019-06-10T14:22:38.706Z,13.50
2019-06-10T14:27:44.411Z,13.30
2019-06-10T14:32:50.006Z,13.10
2019-06-10T14:37:55.654Z,13.00
2019-06-10T14:43:01.431Z,12.80
2019-06-10T14:48:07.193Z,12.80
2019-06-10T14:53:14.185Z,12.70
2019-06-10T14:58:22.772Z,12.70
2019-06-10T15:03:27.490Z,12.60
2019-06-10T15:08:33.144Z,12.60
2019-06-10T15:13:38.769Z,12.70
2019-06-10T15:18:44.459Z,12.70
2019-06-10T15:23:52.323Z,12.70
2019-06-10T15:28:57.696Z,12.60
2019-06-10T15:34:03.607Z,12.70
2019-06-10T15:39:11.047Z,12.60
2019-06-10T15:44:28.403Z,12.70
2019-06-10T15:49:26.208Z,12.60
2019-06-10T15:54:33.387Z,12.80
2019-06-10T15:59:39.163Z,12.70
2019-06-10T16:04:44.812Z,12.80
2019-06-10T16:09:53.157Z,12.80
2019-06-10T16:14:58.331Z,12.70
2019-06-10T16:20:04.120Z,12.60
2019-06-10T16:25:09.816Z,12.60
2019-06-10T16:30:16.065Z,12.60
2019-06-10T16:35:23.931Z,12.60
2019-06-10T16:40:29.075Z,12.60
2019-06-10T16:45:34.759Z,12.60
2019-06-10T16:50:42.495Z,12.60
2019-06-10T16:55:47.690Z,13.10
2019-06-10T17:00:53.450Z,13.90
2019-06-10T17:05:59.276Z,14.00
2019-06-10T17:11:05.021Z,13.50
2019-06-10T17:16:12.736Z,13.10
2019-06-10T17:21:19.380Z,12.90
2019-06-10T17:26:30.746Z,12.80
2019-06-10T17:31:35.115Z,12.80
2019-06-10T17:36:42.548Z,12.80
2019-06-10T17:41:47.815Z,12.80
2019-06-10T17:46:53.782Z,12.70
2019-06-10T17:51:59.672Z,12.70
2019-06-10T17:57:05.643Z,12.60
2019-06-10T18:02:12.375Z,12.40
2019-06-10T18:07:18.249Z,12.50
2019-06-10T18:12:24.150Z,12.60
2019-06-10T18:17:31.163Z,12.70
2019-06-10T18:22:37.214Z,12.40
2019-06-10T18:27:43.426Z,12.30
2019-06-10T18:32:49.155Z,12.30
2019-06-10T18:37:54.883Z,12.40
2019-06-10T18:43:02.749Z,12.50
2019-06-10T18:48:07.942Z,12.50
2019-06-10T18:53:13.559Z,12.40
2019-06-10T18:58:19.265Z,12.50
2019-06-10T19:03:24.974Z,12.60
2019-06-10T19:08:33.980Z,12.70
2019-06-10T19:13:39.154Z,12.80
2019-06-10T19:18:45.137Z,13.00
2019-06-10T19:23:52.972Z,13.50
2019-06-10T19:28:58.971Z,13.60
2019-06-10T19:34:06.064Z,13.40
2019-06-10T19:39:13.131Z,13.30
2019-06-10T19:44:19.147Z,13.20
2019-06-10T19:49:24.812Z,13.20
2019-06-10T19:54:32.285Z,13.20
2019-06-10T20:00:00.064Z,13.10
2019-06-10T20:04:45.670Z,13.10
2019-06-10T20:09:53.897Z,13.10
2019-06-10T20:15:02.114Z,13.10
2019-06-10T20:20:09.691Z,13.10
2019-06-10T20:25:18.166Z,13.10
2019-06-10T20:30:28.664Z,13.10
2019-06-10T20:35:32.647Z,13.10
2019-06-10T20:40:40.042Z,13.00
2019-06-10T20:45:47.901Z,13.00
2019-06-10T20:50:53.753Z,13.00
2019-06-10T20:56:00.212Z,12.90
2019-06-10T21:01:06.176Z,12.90
2019-06-10T21:06:13.069Z,12.90
2019-06-10T21:11:19.256Z,12.90
2019-06-10T21:16:25.029Z,12.80
2019-06-10T21:21:32.649Z,12.80
2019-06-10T21:26:38.878Z,12.70
2019-06-10T21:31:46.998Z,12.80
2019-06-10T21:36:54.184Z,12.80
2019-06-10T21:42:02.096Z,12.80
2019-06-10T21:47:06.840Z,12.80
2019-06-10T21:52:12.939Z,12.80
2019-06-10T21:57:18.811Z,12.90
2019-06-10T22:02:24.461Z,12.90
2019-06-10T22:07:30.181Z,12.90
2019-06-10T22:12:36.447Z,12.90
2019-06-10T22:17:42.644Z,12.90
2019-06-10T22:22:48.569Z,12.90
2019-06-10T22:27:54.448Z,12.90
2019-06-10T22:33:00.172Z,12.90
2019-06-10T22:38:05.860Z,12.90
2019-06-10T22:43:12.965Z,12.90
2019-06-10T22:48:18.736Z,12.90
2019-06-10T22:53:24.345Z,12.90
2019-06-10T22:58:30.002Z,12.90
2019-06-10T23:03:35.578Z,12.90
2019-06-10T23:08:41.139Z,12.90
2019-06-10T23:13:46.820Z,12.90
2019-06-10T23:18:54.997Z,12.90
2019-06-10T23:24:02.480Z,12.90
2019-06-10T23:29:07.515Z,12.80
2019-06-10T23:34:16.634Z,12.80
2019-06-10T23:39:22.490Z,12.80
2019-06-10T23:44:27.708Z,12.70
2019-06-10T23:49:33.433Z,12.70
2019-06-10T23:54:39.043Z,12.80
2019-06-10T23:59:44.662Z,12.80
